createdAt,value
2018-09-27T00:00:59.299Z,43.08
2018-09-27T00:03:30.733Z,44.20
2018-09-27T00:06:02.352Z,44.02
2018-09-27T00:08:33.837Z,43.17
2018-09-27T00:11:05.317Z,42.40
2018-09-27T00:13:36.744Z,43.02
2018-09-27T00:16:08.387Z,43.45
2018-09-27T00:18:39.759Z,43.31
2018-09-27T00:21:11.304Z,42.14
2018-09-27T00:23:42.776Z,42.25
2018-09-27T00:26:14.433Z,42.91
2018-09-27T00:28:45.791Z,43.49
2018-09-27T00:31:17.195Z,44.34
2018-09-27T00:33:48.780Z,42.02
2018-09-27T00:36:20.296Z,43.19
2018-09-27T00:38:51.747Z,43.09
2018-09-27T00:41:23.204Z,42.52
2018-09-27T00:43:54.690Z,43.04
2018-09-27T00:46:26.204Z,42.40
2018-09-27T00:48:57.724Z,42.65
2018-09-27T00:51:28.827Z,44.05
2018-09-27T00:54:00.008Z,44.50
2018-09-27T00:56:30.967Z,43.48
2018-09-27T00:59:01.668Z,44.07
2018-09-27T01:01:32.696Z,43.32
2018-09-27T01:04:04.301Z,43.32
2018-09-27T01:06:35.753Z,43.34
2018-09-27T01:09:09.806Z,43.33
2018-09-27T01:11:41.224Z,42.88
2018-09-27T01:14:12.759Z,43.75
2018-09-27T01:16:44.312Z,44.15
2018-09-27T01:19:15.777Z,43.63
2018-09-27T01:21:47.346Z,42.73
2018-09-27T01:24:18.803Z,43.23
2018-09-27T01:26:50.363Z,44.51
2018-09-27T01:29:21.806Z,43.19
2018-09-27T01:31:53.031Z,41.28
2018-09-27T01:34:24.314Z,42.68
2018-09-27T01:36:55.801Z,42.92
2018-09-27T01:39:27.304Z,43.65
2018-09-27T01:41:58.788Z,43.93
2018-09-27T01:44:30.367Z,41.73
2018-09-27T01:47:01.960Z,42.03
2018-09-27T01:49:33.409Z,42.51
2018-09-27T01:52:04.916Z,42.82
2018-09-27T01:54:35.593Z,42.94
2018-09-27T01:57:06.996Z,43.20
2018-09-27T01:59:38.623Z,44.23
2018-09-27T02:02:10.306Z,43.04
2018-09-27T02:04:41.762Z,43.12
2018-09-27T02:07:13.643Z,43.29
2018-09-27T02:09:45.225Z,43.18
2018-09-27T02:12:17.235Z,42.76
2018-09-27T02:14:48.705Z,43.11
2018-09-27T02:17:20.310Z,43.57
2018-09-27T02:19:51.779Z,42.34
2018-09-27T02:22:23.311Z,44.29
2018-09-27T02:24:54.789Z,43.25
2018-09-27T02:27:26.751Z,44.06
2018-09-27T02:29:58.196Z,44.69
2018-09-27T02:32:29.714Z,43.54
2018-09-27T02:35:01.320Z,45.04
2018-09-27T02:37:32.746Z,43.47
2018-09-27T02:40:04.308Z,43.45
2018-09-27T02:42:35.748Z,44.50
2018-09-27T02:45:07.376Z,42.76
2018-09-27T02:47:38.797Z,41.74
2018-09-27T02:50:10.392Z,43.12
2018-09-27T02:52:41.730Z,43.70
2018-09-27T02:55:13.358Z,43.71
2018-09-27T02:57:44.751Z,42.83
2018-09-27T03:00:16.223Z,43.56
2018-09-27T03:02:47.696Z,43.76
2018-09-27T03:05:19.224Z,43.43
2018-09-27T03:07:50.743Z,42.90
2018-09-27T03:10:21.913Z,43.67
2018-09-27T03:12:52.555Z,43.44
2018-09-27T03:15:24.213Z,43.84
2018-09-27T03:17:55.655Z,43.74
2018-09-27T03:20:27.204Z,42.88
2018-09-27T03:22:58.662Z,42.82
2018-09-27T03:25:30.209Z,44.18
2018-09-27T03:28:01.740Z,44.55
2018-09-27T03:30:33.208Z,45.26
2018-09-27T03:33:04.772Z,42.47
2018-09-27T03:35:36.321Z,43.92
2018-09-27T03:38:07.870Z,43.51
2018-09-27T03:40:39.421Z,43.23
2018-09-27T03:43:10.821Z,43.41
2018-09-27T03:45:42.352Z,44.43
2018-09-27T03:48:13.815Z,43.98
2018-09-27T03:50:45.314Z,43.45
2018-09-27T03:53:16.835Z,42.15
2018-09-27T03:55:48.292Z,43.99
2018-09-27T03:58:21.268Z,43.80
2018-09-27T04:00:52.711Z,44.19
2018-09-27T04:03:24.039Z,43.59
2018-09-27T04:05:55.538Z,43.71
2018-09-27T04:08:26.966Z,42.78
2018-09-27T04:10:57.553Z,44.60
2018-09-27T04:13:29.213Z,43.53
2018-09-27T04:16:00.710Z,44.81
2018-09-27T04:18:32.311Z,43.08
2018-09-27T04:21:03.747Z,43.62
2018-09-27T04:23:35.304Z,43.49
2018-09-27T04:26:07.210Z,43.20
2018-09-27T04:28:38.681Z,43.90
2018-09-27T04:31:10.403Z,44.05
2018-09-27T04:33:41.914Z,42.62
2018-09-27T04:36:13.331Z,43.96
2018-09-27T04:38:44.742Z,43.12
2018-09-27T04:41:16.199Z,43.69
2018-09-27T04:43:47.717Z,44.72
2018-09-27T04:46:19.313Z,44.32
2018-09-27T04:51:46.725Z,44.69
2018-09-27T04:54:17.781Z,44.15
2018-09-27T04:56:48.763Z,43.33
2018-09-27T04:59:19.839Z,44.36
2018-09-27T05:01:50.859Z,44.48
2018-09-27T05:04:22.474Z,44.17
2018-09-27T05:06:54.272Z,42.28
2018-09-27T05:09:25.695Z,43.00
2018-09-27T05:11:57.211Z,42.74
2018-09-27T05:14:28.855Z,42.58
2018-09-27T05:17:00.415Z,42.49
2018-09-27T05:22:12.667Z,43.25
2018-09-27T05:24:43.663Z,43.98
2018-09-27T05:27:14.828Z,43.38
2018-09-27T05:29:46.314Z,43.04
2018-09-27T05:32:17.615Z,44.02
2018-09-27T05:34:48.908Z,43.17
2018-09-27T05:37:20.346Z,43.15
2018-09-27T05:39:51.655Z,43.35
2018-09-27T05:42:23.227Z,42.81
2018-09-27T05:44:54.747Z,42.92
2018-09-27T05:47:25.776Z,43.13
2018-09-27T05:49:56.945Z,43.04
2018-09-27T05:52:28.564Z,43.98
2018-09-27T05:55:00.216Z,43.19
2018-09-27T05:57:31.690Z,43.63
2018-09-27T06:00:03.197Z,43.20
2018-09-27T06:02:34.730Z,42.69
2018-09-27T06:05:06.347Z,43.10
2018-09-27T06:07:37.789Z,43.65
2018-09-27T06:10:09.379Z,44.50
2018-09-27T06:12:40.885Z,43.54
2018-09-27T06:15:12.548Z,43.18
2018-09-27T06:17:43.996Z,43.03
2018-09-27T06:20:15.706Z,42.92
2018-09-27T06:22:47.312Z,44.33
2018-09-27T06:25:18.831Z,43.54
2018-09-27T06:27:50.373Z,43.40
2018-09-27T06:30:21.884Z,43.63
2018-09-27T06:32:53.408Z,44.01
2018-09-27T06:35:24.824Z,43.67
2018-09-27T06:37:57.858Z,43.65
2018-09-27T06:40:29.019Z,44.43
2018-09-27T06:43:00.717Z,44.06
2018-09-27T06:45:32.435Z,44.38
2018-09-27T06:48:03.766Z,43.71
2018-09-27T06:50:34.904Z,44.79
2018-09-27T06:53:05.995Z,43.74
2018-09-27T06:55:36.767Z,43.87
2018-09-27T06:58:08.209Z,43.79
2018-09-27T07:00:39.716Z,44.35
2018-09-27T07:03:11.321Z,44.10
2018-09-27T07:05:42.783Z,44.25
2018-09-27T07:08:14.373Z,44.47
2018-09-27T07:10:45.984Z,43.70
2018-09-27T07:13:17.744Z,43.60
2018-09-27T07:15:49.816Z,44.19
2018-09-27T07:18:21.576Z,44.14
2018-09-27T07:20:53.573Z,44.24
2018-09-27T07:23:25.219Z,44.56
2018-09-27T07:25:58.667Z,44.70
2018-09-27T07:28:30.376Z,44.36
2018-09-27T07:31:01.844Z,44.54
2018-09-27T07:33:33.387Z,44.70
2018-09-27T07:36:05.457Z,44.99
2018-09-27T07:38:37.753Z,44.23
2018-09-27T07:41:09.295Z,44.74
2018-09-27T07:43:40.764Z,45.01
2018-09-27T07:46:12.692Z,44.63
2018-09-27T07:48:43.858Z,44.62
2018-09-27T07:51:15.406Z,44.76
2018-09-27T07:53:46.853Z,44.86
2018-09-27T07:56:18.399Z,45.02
2018-09-27T07:58:49.792Z,44.99
2018-09-27T08:01:21.216Z,44.95
2018-09-27T08:03:52.686Z,44.73
2018-09-27T08:06:24.231Z,44.93
2018-09-27T08:08:55.689Z,44.70
2018-09-27T08:11:27.385Z,44.98
2018-09-27T08:13:58.769Z,45.13
2018-09-27T08:16:30.307Z,44.76
2018-09-27T08:19:01.743Z,44.94
2018-09-27T08:21:33.469Z,44.75
2018-09-27T08:24:04.755Z,44.77
2018-09-27T08:26:36.378Z,44.82
2018-09-27T08:29:07.830Z,44.90
2018-09-27T08:31:38.613Z,45.12
2018-09-27T08:34:09.741Z,45.12
2018-09-27T08:36:41.236Z,44.90
2018-09-27T08:39:13.720Z,44.64
2018-09-27T08:41:45.241Z,44.70
2018-09-27T08:44:16.768Z,44.50
2018-09-27T08:46:48.318Z,44.68
2018-09-27T08:49:19.818Z,45.03
2018-09-27T08:51:51.330Z,44.82
2018-09-27T08:54:22.807Z,45.04
2018-09-27T08:56:54.319Z,44.54
2018-09-27T08:59:25.851Z,44.69
2018-09-27T09:01:57.492Z,44.83
2018-09-27T09:04:28.980Z,44.90
2018-09-27T09:06:59.645Z,44.73
2018-09-27T09:09:31.291Z,44.42
2018-09-27T09:12:02.837Z,44.43
2018-09-27T09:14:34.284Z,44.55
2018-09-27T09:17:05.746Z,44.40
2018-09-27T09:19:37.454Z,44.54
2018-09-27T09:22:08.775Z,44.73
2018-09-27T09:24:40.385Z,44.44
2018-09-27T09:27:12.019Z,44.58
2018-09-27T09:29:43.857Z,44.17
2018-09-27T09:32:15.227Z,44.38
2018-09-27T09:34:46.766Z,44.25
2018-09-27T09:37:18.386Z,44.14
2018-09-27T09:39:49.853Z,44.33
2018-09-27T09:42:21.493Z,44.34
2018-09-27T09:44:53.000Z,44.48
2018-09-27T09:47:24.695Z,44.52
2018-09-27T09:49:56.432Z,43.99
2018-09-27T09:52:27.914Z,44.01
2018-09-27T09:54:59.692Z,44.24
2018-09-27T09:57:31.231Z,44.16
2018-09-27T10:00:02.698Z,44.26
2018-09-27T10:02:34.362Z,43.93
2018-09-27T10:05:05.843Z,43.88
2018-09-27T10:07:37.772Z,44.06
2018-09-27T10:10:09.400Z,44.02
2018-09-27T10:12:40.822Z,43.83
2018-09-27T10:15:12.510Z,43.98
2018-09-27T10:17:43.859Z,44.15
2018-09-27T10:20:15.436Z,44.20
2018-09-27T10:22:46.808Z,43.79
2018-09-27T10:25:18.360Z,43.55
2018-09-27T10:27:49.772Z,43.70
2018-09-27T10:30:21.356Z,43.92
2018-09-27T10:32:52.841Z,44.03
2018-09-27T10:35:24.235Z,43.95
2018-09-27T10:37:55.523Z,43.83
2018-09-27T10:40:27.221Z,43.85
2018-09-27T10:42:58.688Z,43.89
2018-09-27T10:45:30.611Z,43.82
2018-09-27T10:48:02.221Z,43.65
2018-09-27T10:50:33.784Z,44.07
2018-09-27T10:53:05.325Z,44.00
2018-09-27T10:55:36.781Z,43.81
2018-09-27T10:58:08.682Z,43.83
2018-09-27T11:00:40.209Z,43.89
2018-09-27T11:03:11.666Z,43.46
2018-09-27T11:05:43.490Z,43.40
2018-09-27T11:08:15.003Z,43.86
2018-09-27T11:10:46.659Z,43.59
2018-09-27T11:13:18.814Z,43.41
2018-09-27T11:15:50.341Z,44.05
2018-09-27T11:18:21.836Z,43.83
2018-09-27T11:20:53.467Z,44.12
2018-09-27T11:23:24.925Z,44.15
2018-09-27T11:25:56.608Z,43.85
2018-09-27T11:28:31.796Z,43.85
2018-09-27T11:31:08.580Z,44.10
2018-09-27T11:33:40.233Z,44.28
2018-09-27T11:36:12.233Z,44.11
2018-09-27T11:38:43.757Z,43.82
2018-09-27T11:41:15.232Z,43.87
2018-09-27T11:43:46.753Z,44.03
2018-09-27T11:46:18.428Z,44.09
2018-09-27T11:48:50.265Z,44.04
2018-09-27T11:51:22.227Z,43.72
2018-09-27T11:53:53.705Z,43.92
2018-09-27T11:56:25.081Z,44.08
2018-09-27T11:58:56.818Z,44.26
2018-09-27T12:01:28.607Z,44.22
2018-09-27T12:04:00.007Z,44.22
2018-09-27T12:06:31.716Z,44.19
2018-09-27T12:09:03.223Z,44.22
2018-09-27T12:11:35.215Z,43.78
2018-09-27T12:14:06.852Z,43.78
2018-09-27T12:16:38.745Z,44.08
2018-09-27T12:19:10.457Z,44.16
2018-09-27T12:21:41.841Z,44.33
2018-09-27T12:24:13.674Z,43.78
2018-09-27T12:26:45.227Z,43.92
2018-09-27T12:29:16.914Z,44.04
2018-09-27T12:31:48.425Z,44.18
2018-09-27T12:34:20.226Z,44.44
2018-09-27T12:36:51.700Z,43.98
2018-09-27T12:41:48.679Z,44.29
2018-09-27T12:44:19.748Z,44.20
2018-09-27T12:46:51.284Z,44.13
2018-09-27T12:49:22.793Z,43.89
2018-09-27T12:51:54.458Z,44.15
2018-09-27T12:54:25.922Z,44.08
2018-09-27T12:56:56.655Z,44.14
2018-09-27T12:59:28.342Z,44.36
2018-09-27T13:02:00.146Z,44.19
2018-09-27T13:04:31.704Z,44.35
2018-09-27T13:07:03.415Z,44.11
2018-09-27T13:09:35.305Z,43.90
2018-09-27T13:14:50.392Z,44.30
2018-09-27T13:17:21.539Z,44.58
2018-09-27T13:19:52.842Z,44.40
2018-09-27T13:22:23.899Z,44.21
2018-09-27T13:24:55.301Z,44.44
2018-09-27T13:27:26.704Z,44.24
2018-09-27T13:29:58.349Z,44.44
2018-09-27T13:32:29.937Z,44.36
2018-09-27T13:35:00.614Z,44.02
2018-09-27T13:37:31.975Z,44.36
2018-09-27T13:40:02.758Z,44.15
2018-09-27T13:42:34.218Z,44.17
2018-09-27T13:45:05.763Z,44.52
2018-09-27T13:47:37.364Z,44.21
2018-09-27T13:50:08.927Z,44.58
2018-09-27T13:52:40.587Z,44.65
2018-09-27T13:55:12.361Z,44.21
2018-09-27T13:57:43.893Z,44.66
2018-09-27T14:00:15.472Z,44.14
2018-09-27T14:02:46.865Z,44.50
2018-09-27T14:05:18.637Z,44.61
2018-09-27T14:07:50.088Z,45.05
2018-09-27T14:10:21.779Z,45.27
2018-09-27T14:12:52.809Z,45.25
2018-09-27T14:15:24.441Z,45.17
2018-09-27T14:17:55.909Z,44.99
2018-09-27T14:20:27.529Z,45.30
2018-09-27T14:22:59.320Z,45.06
2018-09-27T14:25:30.765Z,45.06
2018-09-27T14:28:02.324Z,45.23
2018-09-27T14:30:33.928Z,45.12
2018-09-27T14:33:04.362Z,45.09
2018-09-27T14:35:35.625Z,45.13
2018-09-27T14:38:06.702Z,45.19
2018-09-27T14:40:38.390Z,45.34
2018-09-27T14:43:09.865Z,45.20
2018-09-27T14:45:41.390Z,45.67
2018-09-27T14:48:12.967Z,45.11
2018-09-27T14:50:43.586Z,45.30
2018-09-27T14:53:14.975Z,45.12
2018-09-27T14:55:46.572Z,45.13
2018-09-27T14:58:17.869Z,45.47
2018-09-27T15:00:49.734Z,45.03
2018-09-27T15:03:21.205Z,45.30
2018-09-27T15:05:52.736Z,44.96
2018-09-27T15:08:25.198Z,45.22
2018-09-27T15:10:56.723Z,45.18
2018-09-27T15:13:28.419Z,44.87
2018-09-27T15:15:59.825Z,44.70
2018-09-27T15:18:31.347Z,45.02
2018-09-27T15:21:02.870Z,44.67
2018-09-27T15:23:34.391Z,44.99
2018-09-27T15:26:06.008Z,44.78
2018-09-27T15:28:37.669Z,44.54
2018-09-27T15:31:09.437Z,44.74
2018-09-27T15:33:41.005Z,44.48
2018-09-27T15:36:12.687Z,44.41
2018-09-27T15:38:44.209Z,44.38
2018-09-27T15:41:15.775Z,44.32
2018-09-27T15:43:47.351Z,44.50
2018-09-27T15:46:18.791Z,44.41
2018-09-27T15:48:49.913Z,44.69
2018-09-27T15:51:21.337Z,44.41
2018-09-27T15:53:52.802Z,44.44
2018-09-27T15:56:24.441Z,44.41
2018-09-27T15:58:55.901Z,44.71
2018-09-27T16:01:27.457Z,44.66
2018-09-27T16:03:58.894Z,44.52
2018-09-27T16:06:29.609Z,44.66
2018-09-27T16:09:01.206Z,44.64
2018-09-27T16:11:32.841Z,44.54
2018-09-27T16:14:04.276Z,44.72
2018-09-27T16:16:35.740Z,44.24
2018-09-27T16:19:07.237Z,44.38
2018-09-27T16:21:38.504Z,44.54
2018-09-27T16:24:09.889Z,44.37
2018-09-27T16:26:41.376Z,44.33
2018-09-27T16:29:12.868Z,44.06
2018-09-27T16:31:44.398Z,44.65
2018-09-27T16:34:15.870Z,44.25
2018-09-27T16:36:47.435Z,44.75
2018-09-27T16:39:18.695Z,44.33
2018-09-27T16:41:50.203Z,44.60
2018-09-27T16:44:21.806Z,44.35
2018-09-27T16:46:53.279Z,44.55
2018-09-27T16:49:24.784Z,44.71
2018-09-27T16:51:56.415Z,44.44
2018-09-27T16:54:28.708Z,44.72
2018-09-27T16:57:00.202Z,44.53
2018-09-27T16:59:31.675Z,44.75
2018-09-27T17:02:03.224Z,44.85
2018-09-27T17:04:34.723Z,44.73
2018-09-27T17:07:06.312Z,44.60
2018-09-27T17:09:37.782Z,44.49
2018-09-27T17:12:09.198Z,44.75
2018-09-27T17:14:40.761Z,44.68
2018-09-27T17:17:12.324Z,44.84
2018-09-27T17:19:43.790Z,44.62
2018-09-27T17:22:15.297Z,45.02
2018-09-27T17:24:46.749Z,44.98
2018-09-27T17:27:18.499Z,44.85
2018-09-27T17:29:49.862Z,44.70
2018-09-27T17:32:21.403Z,44.99
2018-09-27T17:34:53.203Z,45.46
2018-09-27T17:37:24.738Z,45.60
2018-09-27T17:39:56.227Z,45.02
2018-09-27T17:42:27.706Z,45.11
2018-09-27T17:44:59.503Z,45.09
2018-09-27T17:47:31.065Z,45.14
2018-09-27T17:50:02.496Z,45.54
2018-09-27T17:52:33.921Z,45.52
2018-09-27T17:55:04.538Z,45.33
2018-09-27T17:57:35.974Z,44.88
2018-09-27T18:00:06.596Z,45.31
2018-09-27T18:02:38.199Z,45.17
2018-09-27T18:05:18.981Z,45.03
2018-09-27T18:07:41.701Z,45.94
2018-09-27T18:10:13.205Z,45.30
2018-09-27T18:12:44.663Z,45.36
2018-09-27T18:15:16.227Z,45.50
2018-09-27T18:17:47.901Z,46.00
2018-09-27T18:20:19.433Z,46.20
2018-09-27T18:22:51.229Z,46.49
2018-09-27T18:25:22.747Z,45.88
2018-09-27T18:27:55.196Z,45.63
2018-09-27T18:30:26.753Z,46.16
2018-09-27T18:32:58.312Z,46.29
2018-09-27T18:35:29.741Z,46.54
2018-09-27T18:38:01.407Z,46.82
2018-09-27T18:40:32.795Z,46.69
2018-09-27T18:43:04.379Z,46.63
2018-09-27T18:45:35.719Z,46.29
2018-09-27T18:48:07.547Z,46.19
2018-09-27T18:50:39.199Z,46.57
2018-09-27T18:53:10.751Z,46.66
2018-09-27T18:55:42.609Z,46.98
2018-09-27T18:58:14.199Z,47.22
2018-09-27T19:00:45.771Z,46.27
2018-09-27T19:03:16.898Z,46.58
2018-09-27T19:05:47.322Z,46.96
2018-09-27T19:08:20.508Z,46.68
2018-09-27T19:10:53.854Z,47.26
2018-09-27T19:13:25.662Z,47.07
2018-09-27T19:15:57.202Z,47.28
2018-09-27T19:18:28.744Z,46.90
2018-09-27T19:21:00.185Z,46.99
2018-09-27T19:23:31.735Z,47.07
2018-09-27T19:26:03.428Z,47.47
2018-09-27T19:28:34.805Z,47.15
2018-09-27T19:31:06.303Z,46.83
2018-09-27T19:33:37.727Z,47.44
2018-09-27T19:36:09.501Z,47.38
2018-09-27T19:38:40.995Z,47.33
2018-09-27T19:41:12.503Z,47.57
2018-09-27T19:43:44.213Z,47.24
2018-09-27T19:46:15.809Z,47.43
2018-09-27T19:48:47.406Z,46.73
2018-09-27T19:51:19.223Z,47.18
2018-09-27T19:53:50.748Z,47.28
2018-09-27T19:56:22.438Z,46.69
2018-09-27T19:58:53.993Z,46.69
2018-09-27T20:01:25.637Z,47.10
2018-09-27T20:03:57.323Z,47.10
2018-09-27T20:06:28.734Z,47.06
2018-09-27T20:09:00.203Z,47.16
2018-09-27T20:11:31.725Z,47.12
2018-09-27T20:14:03.397Z,47.16
2018-09-27T20:16:35.280Z,47.23
2018-09-27T20:19:06.714Z,46.90
2018-09-27T20:21:38.500Z,47.19
2018-09-27T20:24:10.301Z,47.05
2018-09-27T20:26:41.699Z,46.71
2018-09-27T20:29:13.687Z,46.63
2018-09-27T20:31:45.197Z,46.36
2018-09-27T20:34:16.895Z,46.36
2018-09-27T20:36:48.317Z,46.64
2018-09-27T20:39:19.878Z,46.59
2018-09-27T20:41:51.399Z,46.67
2018-09-27T20:44:23.858Z,46.77
2018-09-27T20:46:55.605Z,46.72
2018-09-27T20:49:27.334Z,46.39
2018-09-27T20:51:58.875Z,46.17
2018-09-27T20:54:30.510Z,46.12
2018-09-27T20:57:02.199Z,46.64
2018-09-27T20:59:35.834Z,46.32
2018-09-27T21:02:07.516Z,46.37
2018-09-27T21:04:39.174Z,46.53
2018-09-27T21:07:10.711Z,46.59
2018-09-27T21:09:42.402Z,46.29
2018-09-27T21:12:17.348Z,46.13
2018-09-27T21:14:48.845Z,46.01
2018-09-27T21:17:20.403Z,46.18
2018-09-27T21:19:52.361Z,46.04
2018-09-27T21:22:25.191Z,46.11
2018-09-27T21:24:56.690Z,45.81
2018-09-27T21:27:28.281Z,46.18
2018-09-27T21:29:59.799Z,45.90
2018-09-27T21:32:31.526Z,45.91
2018-09-27T21:35:03.072Z,45.55
2018-09-27T21:37:34.693Z,45.88
2018-09-27T21:40:06.351Z,45.56
2018-09-27T21:42:37.696Z,46.03
2018-09-27T21:45:09.210Z,45.72
2018-09-27T21:47:40.667Z,45.95
2018-09-27T21:50:12.279Z,46.06
2018-09-27T21:52:43.727Z,45.15
2018-09-27T21:55:16.539Z,45.55
2018-09-27T21:57:48.973Z,46.02
2018-09-27T22:00:20.761Z,45.58
2018-09-27T22:02:53.899Z,45.13
2018-09-27T22:05:25.893Z,45.40
2018-09-27T22:07:59.220Z,46.26
2018-09-27T22:10:34.795Z,46.06
2018-09-27T22:13:06.417Z,44.77
2018-09-27T22:15:37.988Z,45.71
2018-09-27T22:18:09.513Z,45.73
2018-09-27T22:20:40.884Z,45.66
2018-09-27T22:23:12.361Z,45.66
2018-09-27T22:25:43.916Z,45.86
2018-09-27T22:28:15.645Z,45.49
2018-09-27T22:30:47.024Z,45.54
2018-09-27T22:33:18.611Z,45.97
2018-09-27T22:35:50.226Z,45.66
2018-09-27T22:38:21.737Z,46.07
2018-09-27T22:40:53.015Z,45.77
2018-09-27T22:44:07.227Z,45.31
2018-09-27T22:46:38.711Z,45.07
2018-09-27T22:49:10.370Z,44.99
2018-09-27T22:51:41.729Z,45.57
2018-09-27T22:54:13.206Z,45.69
2018-09-27T22:56:44.736Z,45.53
2018-09-27T22:59:16.190Z,44.90
2018-09-27T23:01:47.662Z,45.77
2018-09-27T23:04:19.312Z,45.51
2018-09-27T23:06:51.347Z,45.33
2018-09-27T23:09:23.666Z,45.38
2018-09-27T23:11:55.213Z,44.92
2018-09-27T23:14:26.727Z,45.88
2018-09-27T23:16:58.381Z,45.79
2018-09-27T23:19:29.862Z,45.84
2018-09-27T23:22:01.590Z,45.76
2018-09-27T23:24:33.320Z,45.64
2018-09-27T23:27:04.797Z,45.60
2018-09-27T23:29:36.319Z,46.08
2018-09-27T23:32:07.888Z,45.36
2018-09-27T23:34:39.362Z,44.95
2018-09-27T23:37:10.737Z,45.83
2018-09-27T23:39:42.402Z,45.57
2018-09-27T23:42:13.838Z,46.25
2018-09-27T23:44:45.410Z,45.71
2018-09-27T23:47:16.762Z,45.76
2018-09-27T23:49:48.390Z,45.59
2018-09-27T23:52:19.750Z,45.96
2018-09-27T23:54:51.195Z,45.79
2018-09-27T23:57:22.708Z,45.78
2018-09-27T23:59:54.157Z,45.81
